Predator — ZCTY5 — position and weather

sailwx.info

Track history (hours):
 
Tides and Currents Weather Stations Pressure Air Temp Water Temp Dewpoint Dewpoint Depression Visibility Wind Speed Wind Dir Waves Ship Positions

Predator

Last reported at 2015-Jul-30 11:28 UTC. Time now 2015-Jul-30 12:11 UTC.
Position N 43°53' E 008°02'.

Length 73 m; draft 4.3 m.

Type: Pleasure craft. MMSI: 319300000.

Date/timePositionNaut miles runAvg speedWind from/ knotsBaromVisibWave heightAir tempDewpointWater temp
2015-Jul-30 11:28N 43°53' E 008°02'  
2015-Jul-27 06:33N 43°31' E 007°22'1919.0
2015-Jul-27 05:34N 43°22' E 006°59'1715.0
2015-Jul-27 04:25N 43°16' E 006°37'0 0.0
2015-Jul-27 03:26N 43°16' E 006°37'0 0.0
2015-Jul-27 02:29N 43°16' E 006°37'0 0.0
2015-Jul-27 01:26N 43°16' E 006°37'0 0.0
2015-Jul-27 00:33N 43°16' E 006°37'0 0.0
2015-Jul-26 23:27N 43°16' E 006°37'0 0.0
2015-Jul-26 22:33N 43°16' E 006°37'0 0.0
2015-Jul-26 21:33N 43°16' E 006°37'0 0.0
2015-Jul-26 19:29N 43°16' E 006°37'1515.9
2015-Jul-26 18:33N 43°22' E 006°56'2019.9
2015-Jul-26 17:33N 43°31' E 007°20'7919.5
2015-Jul-26 13:31N 44°09' E 008°56'17 0.6
2015-Jul-25 07:27N 44°16' E 009°17'1718.9
2015-Jul-25 06:33N 44°04' E 009°33'7 7.3
2015-Jul-25 05:34N 43°57' E 009°35'2019.8
2015-Jul-25 04:33N 44°14' E 009°19'7 0.5
2015-Jul-24 14:26N 44°19' E 009°14'1516.9
2015-Jul-24 13:34N 44°10' E 008°57'2019.5
2015-Jul-24 12:33N 43°59' E 008°34'7719.2
2015-Jul-24 08:34N 43°23' E 007°00'1918.3
2015-Jul-24 07:33N 43°16' E 006°37'0 0.2
2015-Jul-24 06:33N 43°16' E 006°37'0 0.0
2015-Jul-24 05:21N 43°16' E 006°37'0 0.0
2015-Jul-24 04:33N 43°16' E 006°37'0 0.0
2015-Jul-24 03:33N 43°16' E 006°37'0 0.0
2015-Jul-24 02:21N 43°16' E 006°37'0 0.0
2015-Jul-24 01:33N 43°16' E 006°37'0 0.0
2015-Jul-24 00:30N 43°16' E 006°37'0 0.0
2015-Jul-23 23:33N 43°16' E 006°37'0 0.0
2015-Jul-23 22:18N 43°16' E 006°37'0 0.0
2015-Jul-23 21:09N 43°16' E 006°37'0 0.0
2015-Jul-23 20:15N 43°16' E 006°37'0 0.0
2015-Jul-23 19:28N 43°16' E 006°37'0 0.0
2015-Jul-23 18:32N 43°16' E 006°37'0 0.0
2015-Jul-23 17:21N 43°16' E 006°37'0 0.0
2015-Jul-23 16:33N 43°16' E 006°37'0 0.0
2015-Jul-23 15:24N 43°16' E 006°37'0 0.2
2015-Jul-23 14:34N 43°16' E 006°36'1715.7
2015-Jul-23 13:30N 43°24' E 006°57'1411.4
2015-Jul-23 12:18N 43°35' E 007°08'0 0.1
2015-Jul-23 11:30N 43°35' E 007°08'0 0.0
2015-Jul-23 10:29N 43°35' E 007°08'0 0.0
2015-Jul-23 09:29N 43°35' E 007°08'0 0.0
2015-Jul-23 08:23N 43°35' E 007°08'0 0.0
2015-Jul-23 07:29N 43°35' E 007°08'0 0.0
2015-Jul-23 06:29N 43°35' E 007°08'0 0.0
2015-Jul-23 05:29N 43°35' E 007°08'0 0.0
2015-Jul-23 04:29N 43°35' E 007°08'0 0.0
2015-Jul-23 03:29N 43°35' E 007°08'0 0.0
2015-Jul-23 02:29N 43°35' E 007°08'0 0.0
2015-Jul-23 01:29N 43°35' E 007°08'0 0.0
2015-Jul-23 00:29N 43°35' E 007°08'0 0.0
2015-Jul-22 23:23N 43°35' E 007°08'0 0.0
2015-Jul-22 22:29N 43°35' E 007°08'0 0.0
2015-Jul-22 21:29N 43°35' E 007°08'0 0.0
2015-Jul-22 20:29N 43°35' E 007°08'0 0.0
2015-Jul-22 19:29N 43°35' E 007°08'0 0.0
2015-Jul-22 18:23N 43°35' E 007°08'0 0.0
2015-Jul-22 17:26N 43°35' E 007°08'0 0.0
2015-Jul-22 16:33N 43°35' E 007°08'4314.2
2015-Jul-22 13:32N 43°53' E 008°02'0 0.2
2015-Jul-22 12:29N 43°53' E 008°02'0 0.0
2015-Jul-22 10:17N 43°53' E 008°02'0 0.0
2015-Jul-22 09:29N 43°53' E 008°02'0 0.0
2015-Jul-22 08:32N 43°53' E 008°02'0 0.0
2015-Jul-22 00:29N 43°53' E 008°02'0 0.0
2015-Jul-21 20:23N 43°53' E 008°02'0 0.0
2015-Jul-21 19:32N 43°53' E 008°02'0 0.0
2015-Jul-21 18:32N 43°53' E 008°02'  
Track history (hours):
 
Tides and Currents Weather Stations Pressure Air Temp Water Temp Dewpoint Dewpoint Depression Visibility Wind Speed Wind Dir Waves Ship Positions

Predator

Last reported at 2015-Jul-30 11:28 UTC. Time now 2015-Jul-30 12:11 UTC.
Position N 43°53' E 008°02'.

Length 73 m; draft 4.3 m.

Type: Pleasure craft. MMSI: 319300000.

Date/timePositionNaut miles runAvg speedWind from/ knotsBaromVisibWave heightAir tempDewpointWater temp
2015-Jul-30 11:28N 43°53' E 008°02'  
2015-Jul-27 06:33N 43°31' E 007°22'1919.0
2015-Jul-27 05:34N 43°22' E 006°59'1715.0
2015-Jul-27 04:25N 43°16' E 006°37'0 0.0
2015-Jul-27 03:26N 43°16' E 006°37'0 0.0
2015-Jul-27 02:29N 43°16' E 006°37'0 0.0
2015-Jul-27 01:26N 43°16' E 006°37'0 0.0
2015-Jul-27 00:33N 43°16' E 006°37'0 0.0
2015-Jul-26 23:27N 43°16' E 006°37'0 0.0
2015-Jul-26 22:33N 43°16' E 006°37'0 0.0
2015-Jul-26 21:33N 43°16' E 006°37'0 0.0
2015-Jul-26 19:29N 43°16' E 006°37'1515.9
2015-Jul-26 18:33N 43°22' E 006°56'2019.9
2015-Jul-26 17:33N 43°31' E 007°20'7919.5
2015-Jul-26 13:31N 44°09' E 008°56'17 0.6
2015-Jul-25 07:27N 44°16' E 009°17'1718.9
2015-Jul-25 06:33N 44°04' E 009°33'7 7.3
2015-Jul-25 05:34N 43°57' E 009°35'2019.8
2015-Jul-25 04:33N 44°14' E 009°19'7 0.5
2015-Jul-24 14:26N 44°19' E 009°14'1516.9
2015-Jul-24 13:34N 44°10' E 008°57'2019.5
2015-Jul-24 12:33N 43°59' E 008°34'7719.2
2015-Jul-24 08:34N 43°23' E 007°00'1918.3
2015-Jul-24 07:33N 43°16' E 006°37'0 0.2
2015-Jul-24 06:33N 43°16' E 006°37'0 0.0
2015-Jul-24 05:21N 43°16' E 006°37'0 0.0
2015-Jul-24 04:33N 43°16' E 006°37'0 0.0
2015-Jul-24 03:33N 43°16' E 006°37'0 0.0
2015-Jul-24 02:21N 43°16' E 006°37'0 0.0
2015-Jul-24 01:33N 43°16' E 006°37'0 0.0
2015-Jul-24 00:30N 43°16' E 006°37'0 0.0
2015-Jul-23 23:33N 43°16' E 006°37'0 0.0
2015-Jul-23 22:18N 43°16' E 006°37'0 0.0
2015-Jul-23 21:09N 43°16' E 006°37'0 0.0
2015-Jul-23 20:15N 43°16' E 006°37'0 0.0
2015-Jul-23 19:28N 43°16' E 006°37'0 0.0
2015-Jul-23 18:32N 43°16' E 006°37'0 0.0
2015-Jul-23 17:21N 43°16' E 006°37'0 0.0
2015-Jul-23 16:33N 43°16' E 006°37'0 0.0
2015-Jul-23 15:24N 43°16' E 006°37'0 0.2
2015-Jul-23 14:34N 43°16' E 006°36'1715.7
2015-Jul-23 13:30N 43°24' E 006°57'1411.4
2015-Jul-23 12:18N 43°35' E 007°08'0 0.1
2015-Jul-23 11:30N 43°35' E 007°08'0 0.0
2015-Jul-23 10:29N 43°35' E 007°08'0 0.0
2015-Jul-23 09:29N 43°35' E 007°08'0 0.0
2015-Jul-23 08:23N 43°35' E 007°08'0 0.0
2015-Jul-23 07:29N 43°35' E 007°08'0 0.0
2015-Jul-23 06:29N 43°35' E 007°08'0 0.0
2015-Jul-23 05:29N 43°35' E 007°08'0 0.0
2015-Jul-23 04:29N 43°35' E 007°08'0 0.0
2015-Jul-23 03:29N 43°35' E 007°08'0 0.0
2015-Jul-23 02:29N 43°35' E 007°08'0 0.0
2015-Jul-23 01:29N 43°35' E 007°08'0 0.0
2015-Jul-23 00:29N 43°35' E 007°08'0 0.0
2015-Jul-22 23:23N 43°35' E 007°08'0 0.0
2015-Jul-22 22:29N 43°35' E 007°08'0 0.0
2015-Jul-22 21:29N 43°35' E 007°08'0 0.0
2015-Jul-22 20:29N 43°35' E 007°08'0 0.0
2015-Jul-22 19:29N 43°35' E 007°08'0 0.0
2015-Jul-22 18:23N 43°35' E 007°08'0 0.0
2015-Jul-22 17:26N 43°35' E 007°08'0 0.0
2015-Jul-22 16:33N 43°35' E 007°08'4314.2
2015-Jul-22 13:32N 43°53' E 008°02'0 0.2
2015-Jul-22 12:29N 43°53' E 008°02'0 0.0
2015-Jul-22 10:17N 43°53' E 008°02'0 0.0
2015-Jul-22 09:29N 43°53' E 008°02'0 0.0
2015-Jul-22 08:32N 43°53' E 008°02'0 0.0
2015-Jul-22 00:29N 43°53' E 008°02'0 0.0
2015-Jul-21 20:23N 43°53' E 008°02'0 0.0
2015-Jul-21 19:32N 43°53' E 008°02'0 0.0
2015-Jul-21 18:32N 43°53' E 008°02'  

Dump ship's entire track history